SWR3LC LROP-EDDS
Flight info
| Callsign | SWR3LC |
|---|---|
| Flight time | 1h 56m |
| Altitude | 32000 |
| Route | SOKRU DCT OXDOC DCT IRLOX DCT EMPOS DCT EVRIK DCT BKS DCT BALUX DCT ZOLKU DCT TEKNO DCT ABETI DCT BARUG DCT MATIG DCT TITIG L173 DODIL T127 TEKSI TEKSI1W |
| Aircraft | A320/M-SDE3FGHIRWY/LB1 |
Departure
| Time | 2026-05-05 16:44 |
|---|---|
| Airport | Bucharest Henri Coandă International Airport (LROP) |
Arrival
| Time | 2026-05-05 18:40 |
|---|---|
| Airport | Stuttgart Airport (EDDS) |
| Time | Latitude | Longitude | Altitude | Speed | Heading |
|---|---|---|---|---|---|
| 2026-05-05 16:18 | 44.57139 | 26.08113 | 323 ft | 0 kts | 174° |
| 2026-05-05 16:32 | 44.57159 | 26.08110 | 321 ft | 4 kts | 174° |
| 2026-05-05 16:32 | 44.57185 | 26.08106 | 321 ft | 2 kts | 174° |
| 2026-05-05 16:32 | 44.57201 | 26.08103 | 321 ft | 4 kts | 112° |
| 2026-05-05 16:33 | 44.57202 | 26.08071 | 322 ft | 4 kts | 84° |
| 2026-05-05 16:33 | 44.57201 | 26.08058 | 321 ft | 0 kts | 84° |
| 2026-05-05 16:36 | 44.57204 | 26.08094 | 321 ft | 10 kts | 84° |
| 2026-05-05 16:36 | 44.57210 | 26.08185 | 322 ft | 8 kts | 84° |
| 2026-05-05 16:37 | 44.57216 | 26.08258 | 322 ft | 7 kts | 84° |
| 2026-05-05 16:37 | 44.57221 | 26.08326 | 322 ft | 9 kts | 84° |
| 2026-05-05 16:37 | 44.57228 | 26.08424 | 322 ft | 10 kts | 84° |
| 2026-05-05 16:37 | 44.57254 | 26.08493 | 322 ft | 9 kts | 22° |
| 2026-05-05 16:38 | 44.57322 | 26.08491 | 322 ft | 11 kts | 353° |
| 2026-05-05 16:38 | 44.57422 | 26.08476 | 322 ft | 16 kts | 354° |
| 2026-05-05 16:38 | 44.57496 | 26.08540 | 322 ft | 13 kts | 89° |
| 2026-05-05 16:38 | 44.57507 | 26.08673 | 322 ft | 17 kts | 84° |
| 2026-05-05 16:39 | 44.57520 | 26.08862 | 322 ft | 20 kts | 83° |
| 2026-05-05 16:39 | 44.57536 | 26.09065 | 322 ft | 22 kts | 84° |
| 2026-05-05 16:39 | 44.57552 | 26.09280 | 322 ft | 23 kts | 84° |
| 2026-05-05 16:39 | 44.57568 | 26.09507 | 322 ft | 24 kts | 83° |
| 2026-05-05 16:40 | 44.57587 | 26.09743 | 322 ft | 25 kts | 84° |
| 2026-05-05 16:40 | 44.57606 | 26.09991 | 322 ft | 26 kts | 84° |
| 2026-05-05 16:40 | 44.57626 | 26.10247 | 320 ft | 27 kts | 84° |
| 2026-05-05 16:40 | 44.57644 | 26.10505 | 322 ft | 27 kts | 84° |
| 2026-05-05 16:41 | 44.57664 | 26.10768 | 322 ft | 28 kts | 84° |
| 2026-05-05 16:41 | 44.57685 | 26.11041 | 321 ft | 29 kts | 84° |
| 2026-05-05 16:41 | 44.57706 | 26.11322 | 322 ft | 29 kts | 83° |
| 2026-05-05 16:41 | 44.57727 | 26.11608 | 322 ft | 30 kts | 84° |
| 2026-05-05 16:42 | 44.57750 | 26.11901 | 322 ft | 30 kts | 84° |
| 2026-05-05 16:42 | 44.57772 | 26.12200 | 322 ft | 31 kts | 84° |
| 2026-05-05 16:42 | 44.57795 | 26.12503 | 322 ft | 31 kts | 84° |
| 2026-05-05 16:42 | 44.57809 | 26.12700 | 322 ft | 18 kts | 84° |
| 2026-05-05 16:43 | 44.57838 | 26.12859 | 321 ft | 16 kts | 40° |
| 2026-05-05 16:43 | 44.57922 | 26.12819 | 322 ft | 12 kts | 324° |
| 2026-05-05 16:43 | 44.57980 | 26.12712 | 322 ft | 19 kts | 271° |
| 2026-05-05 16:43 | 44.57949 | 26.12272 | 322 ft | 80 kts | 263° |
| 2026-05-05 16:44 | 44.57869 | 26.11212 | 321 ft | 137 kts | 264° |
| 2026-05-05 16:44 | 44.57741 | 26.09679 | 434 ft | 171 kts | 263° |
| 2026-05-05 16:44 | 44.57629 | 26.08026 | 1022 ft | 169 kts | 263° |
| 2026-05-05 16:44 | 44.57513 | 26.06392 | 1578 ft | 168 kts | 263° |
| 2026-05-05 16:45 | 44.57403 | 26.04772 | 2121 ft | 168 kts | 263° |
| 2026-05-05 16:45 | 44.57274 | 26.03059 | 2328 ft | 186 kts | 262° |
| 2026-05-05 16:45 | 44.57125 | 26.01157 | 2467 ft | 206 kts | 263° |
| 2026-05-05 16:45 | 44.56961 | 25.99103 | 2632 ft | 223 kts | 263° |
| 2026-05-05 16:46 | 44.56987 | 25.96849 | 2851 ft | 240 kts | 284° |
| 2026-05-05 16:46 | 44.57836 | 25.94732 | 3297 ft | 260 kts | 311° |
| 2026-05-05 16:46 | 44.59043 | 25.92818 | 4120 ft | 263 kts | 310° |
| 2026-05-05 16:46 | 44.60232 | 25.90855 | 5006 ft | 265 kts | 310° |
| 2026-05-05 16:47 | 44.61423 | 25.88856 | 5861 ft | 268 kts | 311° |
| 2026-05-05 16:47 | 44.62626 | 25.86835 | 6682 ft | 271 kts | 311° |
| 2026-05-05 16:47 | 44.63841 | 25.84795 | 7506 ft | 273 kts | 311° |
| 2026-05-05 16:47 | 44.65062 | 25.82741 | 8344 ft | 275 kts | 312° |
| 2026-05-05 16:48 | 44.66293 | 25.80679 | 9191 ft | 276 kts | 313° |
| 2026-05-05 16:48 | 44.67529 | 25.78610 | 10005 ft | 278 kts | 313° |
| 2026-05-05 16:48 | 44.68808 | 25.76478 | 10405 ft | 295 kts | 313° |
| 2026-05-05 16:48 | 44.70186 | 25.74186 | 10589 ft | 319 kts | 313° |
| 2026-05-05 16:49 | 44.71660 | 25.71733 | 10930 ft | 334 kts | 313° |
| 2026-05-05 16:49 | 44.73169 | 25.69204 | 11540 ft | 340 kts | 313° |
| 2026-05-05 16:49 | 44.74695 | 25.66634 | 12216 ft | 345 kts | 313° |
| 2026-05-05 16:49 | 44.76243 | 25.64029 | 12882 ft | 349 kts | 313° |
| 2026-05-05 16:50 | 44.77808 | 25.61398 | 13540 ft | 353 kts | 313° |
| 2026-05-05 16:50 | 44.79393 | 25.58729 | 14139 ft | 357 kts | 313° |
| 2026-05-05 16:50 | 44.81028 | 25.56080 | 14721 ft | 359 kts | 319° |
| 2026-05-05 16:50 | 44.83088 | 25.54155 | 15290 ft | 356 kts | 340° |
| 2026-05-05 16:51 | 44.85486 | 25.53364 | 15859 ft | 356 kts | 355° |
| 2026-05-05 16:51 | 44.87961 | 25.53020 | 16426 ft | 359 kts | 356° |
| 2026-05-05 16:51 | 44.90463 | 25.52703 | 16997 ft | 363 kts | 356° |
| 2026-05-05 16:51 | 44.92975 | 25.52390 | 17575 ft | 366 kts | 356° |
| 2026-05-05 16:52 | 44.95524 | 25.52074 | 18159 ft | 369 kts | 356° |
| 2026-05-05 16:52 | 44.98057 | 25.51762 | 18671 ft | 372 kts | 356° |
| 2026-05-05 16:52 | 45.00679 | 25.51441 | 19189 ft | 375 kts | 356° |
| 2026-05-05 16:52 | 45.03255 | 25.51128 | 19699 ft | 377 kts | 356° |
| 2026-05-05 16:53 | 45.05879 | 25.50815 | 20235 ft | 380 kts | 356° |
| 2026-05-05 16:53 | 45.08522 | 25.50506 | 20750 ft | 383 kts | 356° |
| 2026-05-05 16:53 | 45.11191 | 25.50193 | 21222 ft | 386 kts | 356° |
| 2026-05-05 16:53 | 45.13883 | 25.49879 | 21723 ft | 389 kts | 356° |
| 2026-05-05 16:54 | 45.16586 | 25.49488 | 22217 ft | 393 kts | 350° |
| 2026-05-05 16:54 | 45.19176 | 25.48214 | 22683 ft | 399 kts | 333° |
| 2026-05-05 16:54 | 45.21400 | 25.45830 | 23115 ft | 406 kts | 315° |
| 2026-05-05 16:54 | 45.23003 | 25.42511 | 23543 ft | 413 kts | 298° |
| 2026-05-05 16:55 | 45.24247 | 25.38820 | 23918 ft | 416 kts | 297° |
| 2026-05-05 16:55 | 45.25482 | 25.35100 | 24304 ft | 418 kts | 297° |
| 2026-05-05 16:55 | 45.26716 | 25.31360 | 24696 ft | 419 kts | 297° |
| 2026-05-05 16:55 | 45.27954 | 25.27597 | 25047 ft | 421 kts | 297° |
| 2026-05-05 16:56 | 45.29196 | 25.23832 | 25418 ft | 422 kts | 297° |
| 2026-05-05 16:56 | 45.30449 | 25.20051 | 25772 ft | 424 kts | 298° |
| 2026-05-05 16:56 | 45.31712 | 25.16253 | 26123 ft | 425 kts | 298° |
| 2026-05-05 16:56 | 45.32976 | 25.12454 | 26471 ft | 426 kts | 298° |
| 2026-05-05 16:57 | 45.34243 | 25.08640 | 26842 ft | 427 kts | 297° |
| 2026-05-05 16:57 | 45.35507 | 25.04821 | 27185 ft | 428 kts | 297° |
| 2026-05-05 16:57 | 45.36774 | 25.00982 | 27509 ft | 429 kts | 298° |
| 2026-05-05 16:57 | 45.38041 | 24.97131 | 27836 ft | 431 kts | 298° |
| 2026-05-05 16:58 | 45.39311 | 24.93271 | 27988 ft | 431 kts | 298° |
| 2026-05-05 16:58 | 45.40581 | 24.89400 | 28008 ft | 431 kts | 297° |
| 2026-05-05 16:58 | 45.43107 | 24.81673 | 28014 ft | 431 kts | 297° |
| 2026-05-05 16:59 | 45.44369 | 24.77807 | 27998 ft | 430 kts | 297° |
| 2026-05-05 16:59 | 45.45629 | 24.73942 | 28000 ft | 430 kts | 297° |
| 2026-05-05 16:59 | 45.48150 | 24.66220 | 27996 ft | 430 kts | 297° |
| 2026-05-05 17:00 | 45.49410 | 24.62357 | 28000 ft | 430 kts | 297° |
| 2026-05-05 17:00 | 45.50668 | 24.58494 | 27998 ft | 430 kts | 297° |
| 2026-05-05 17:00 | 45.51921 | 24.54628 | 27995 ft | 430 kts | 297° |
| 2026-05-05 17:00 | 45.53172 | 24.50746 | 27992 ft | 431 kts | 297° |
| 2026-05-05 17:01 | 45.54427 | 24.46850 | 27983 ft | 432 kts | 297° |
| 2026-05-05 17:01 | 45.55682 | 24.42952 | 27991 ft | 432 kts | 297° |
| 2026-05-05 17:01 | 45.56936 | 24.39056 | 27983 ft | 431 kts | 297° |
| 2026-05-05 17:01 | 45.58189 | 24.35175 | 27983 ft | 431 kts | 297° |
| 2026-05-05 17:02 | 45.59443 | 24.31288 | 27985 ft | 431 kts | 297° |
| 2026-05-05 17:02 | 45.60695 | 24.27393 | 27984 ft | 432 kts | 297° |
| 2026-05-05 17:02 | 45.61942 | 24.23490 | 27987 ft | 432 kts | 297° |
| 2026-05-05 17:02 | 45.63184 | 24.19583 | 27985 ft | 432 kts | 297° |
| 2026-05-05 17:03 | 45.64439 | 24.15689 | 27984 ft | 431 kts | 297° |
| 2026-05-05 17:03 | 45.65743 | 24.11825 | 27982 ft | 431 kts | 298° |
| 2026-05-05 17:03 | 45.67077 | 24.07986 | 27989 ft | 431 kts | 298° |
| 2026-05-05 17:03 | 45.68425 | 24.04152 | 27988 ft | 431 kts | 298° |
| 2026-05-05 17:04 | 45.69752 | 24.00376 | 27987 ft | 431 kts | 298° |
| 2026-05-05 17:04 | 45.71093 | 23.96530 | 27976 ft | 431 kts | 298° |
| 2026-05-05 17:04 | 45.72420 | 23.92684 | 27976 ft | 431 kts | 298° |
| 2026-05-05 17:04 | 45.73741 | 23.88823 | 27978 ft | 431 kts | 298° |
| 2026-05-05 17:05 | 45.75054 | 23.84968 | 27982 ft | 431 kts | 298° |
| 2026-05-05 17:05 | 45.76365 | 23.81105 | 27982 ft | 431 kts | 298° |
| 2026-05-05 17:05 | 45.77675 | 23.77243 | 27985 ft | 431 kts | 298° |
| 2026-05-05 17:05 | 45.78983 | 23.73384 | 27976 ft | 431 kts | 298° |
| 2026-05-05 17:06 | 45.80336 | 23.69549 | 27976 ft | 431 kts | 300° |
| 2026-05-05 17:06 | 45.81762 | 23.65783 | 27977 ft | 430 kts | 301° |
| 2026-05-05 17:06 | 45.83234 | 23.62055 | 27977 ft | 430 kts | 302° |
| 2026-05-05 17:06 | 45.84724 | 23.58332 | 27977 ft | 430 kts | 302° |
| 2026-05-05 17:07 | 45.86205 | 23.54608 | 27980 ft | 430 kts | 301° |
| 2026-05-05 17:07 | 45.87672 | 23.50868 | 27980 ft | 430 kts | 301° |
| 2026-05-05 17:07 | 45.89121 | 23.47111 | 27971 ft | 430 kts | 300° |
| 2026-05-05 17:07 | 45.90562 | 23.43342 | 27975 ft | 430 kts | 300° |
| 2026-05-05 17:08 | 45.91510 | 23.40854 | 27973 ft | 430 kts | 300° |
| 2026-05-05 17:08 | 45.92944 | 23.37085 | 27975 ft | 430 kts | 300° |
| 2026-05-05 17:08 | 45.94380 | 23.33314 | 27966 ft | 430 kts | 300° |
| 2026-05-05 17:08 | 45.95815 | 23.29550 | 27967 ft | 430 kts | 300° |
| 2026-05-05 17:09 | 45.97251 | 23.25784 | 27973 ft | 430 kts | 300° |
| 2026-05-05 17:09 | 45.98687 | 23.22013 | 27970 ft | 430 kts | 300° |
| 2026-05-05 17:09 | 46.00120 | 23.18243 | 27971 ft | 430 kts | 300° |
| 2026-05-05 17:09 | 46.01551 | 23.14472 | 27968 ft | 429 kts | 300° |
| 2026-05-05 17:10 | 46.02980 | 23.10695 | 28128 ft | 431 kts | 300° |
| 2026-05-05 17:10 | 46.04417 | 23.06892 | 28442 ft | 433 kts | 300° |
| 2026-05-05 17:10 | 46.05855 | 23.03083 | 28754 ft | 434 kts | 300° |
| 2026-05-05 17:10 | 46.07302 | 22.99253 | 29030 ft | 436 kts | 300° |
| 2026-05-05 17:11 | 46.08749 | 22.95415 | 29280 ft | 438 kts | 300° |
| 2026-05-05 17:11 | 46.10207 | 22.91539 | 29522 ft | 440 kts | 300° |
| 2026-05-05 17:11 | 46.11672 | 22.87644 | 29775 ft | 442 kts | 300° |
| 2026-05-05 17:11 | 46.13137 | 22.83740 | 29994 ft | 444 kts | 300° |
| 2026-05-05 17:12 | 46.14606 | 22.79813 | 30220 ft | 445 kts | 300° |
| 2026-05-05 17:12 | 46.16073 | 22.75888 | 30448 ft | 445 kts | 299° |
| 2026-05-05 17:12 | 46.17540 | 22.71957 | 30752 ft | 444 kts | 299° |
| 2026-05-05 17:12 | 46.18997 | 22.68044 | 31035 ft | 442 kts | 299° |
| 2026-05-05 17:13 | 46.20450 | 22.64134 | 31315 ft | 441 kts | 299° |
| 2026-05-05 17:13 | 46.21900 | 22.60234 | 31593 ft | 441 kts | 299° |
| 2026-05-05 17:13 | 46.23348 | 22.56338 | 31846 ft | 440 kts | 299° |
| 2026-05-05 17:13 | 46.24793 | 22.52443 | 31959 ft | 437 kts | 299° |
| 2026-05-05 17:14 | 46.27638 | 22.44771 | 31971 ft | 431 kts | 298° |
| 2026-05-05 17:14 | 46.30458 | 22.37133 | 31975 ft | 430 kts | 298° |
| 2026-05-05 17:15 | 46.33267 | 22.29484 | 31963 ft | 430 kts | 298° |
| 2026-05-05 17:15 | 46.36079 | 22.21843 | 31964 ft | 430 kts | 299° |
| 2026-05-05 17:16 | 46.39009 | 22.14296 | 31953 ft | 430 kts | 300° |
| 2026-05-05 17:16 | 46.41997 | 22.06792 | 31951 ft | 430 kts | 300° |
| 2026-05-05 17:17 | 46.44958 | 21.99247 | 31944 ft | 430 kts | 300° |
| 2026-05-05 17:17 | 46.47889 | 21.91682 | 31939 ft | 430 kts | 299° |
| 2026-05-05 17:18 | 46.50812 | 21.84110 | 31936 ft | 431 kts | 299° |
| 2026-05-05 17:18 | 46.53739 | 21.76511 | 31930 ft | 431 kts | 299° |
| 2026-05-05 17:19 | 46.56664 | 21.68894 | 31934 ft | 432 kts | 299° |
| 2026-05-05 17:19 | 46.59584 | 21.61265 | 31932 ft | 432 kts | 299° |
| 2026-05-05 17:20 | 46.62503 | 21.53620 | 31932 ft | 432 kts | 299° |
| 2026-05-05 17:20 | 46.65416 | 21.45977 | 31925 ft | 433 kts | 298° |
| 2026-05-05 17:21 | 46.68354 | 21.38258 | 32113 ft | 439 kts | 298° |
| 2026-05-05 17:21 | 46.69831 | 21.34370 | 32367 ft | 439 kts | 298° |
| 2026-05-05 17:22 | 46.72779 | 21.26582 | 32909 ft | 438 kts | 298° |
| 2026-05-05 17:22 | 46.74252 | 21.22683 | 33207 ft | 438 kts | 298° |
| 2026-05-05 17:22 | 46.75716 | 21.18801 | 33506 ft | 437 kts | 297° |
| 2026-05-05 17:22 | 46.77175 | 21.14925 | 33828 ft | 435 kts | 297° |
| 2026-05-05 17:23 | 46.78629 | 21.11051 | 33922 ft | 434 kts | 297° |
| 2026-05-05 17:23 | 46.81230 | 21.03133 | 33928 ft | 432 kts | 292° |
| 2026-05-05 17:24 | 46.83566 | 20.95040 | 33921 ft | 432 kts | 292° |
| 2026-05-05 17:24 | 46.85900 | 20.86947 | 33923 ft | 432 kts | 292° |
| 2026-05-05 17:25 | 46.88217 | 20.78857 | 33917 ft | 431 kts | 292° |
| 2026-05-05 17:25 | 46.90525 | 20.70769 | 33920 ft | 431 kts | 292° |
| 2026-05-05 17:26 | 46.92827 | 20.62683 | 33914 ft | 430 kts | 292° |
| 2026-05-05 17:26 | 46.95120 | 20.54596 | 33915 ft | 430 kts | 292° |
| 2026-05-05 17:27 | 46.97405 | 20.46517 | 33908 ft | 430 kts | 291° |
| 2026-05-05 17:27 | 46.99688 | 20.38432 | 33904 ft | 429 kts | 291° |
| 2026-05-05 17:28 | 47.01962 | 20.30338 | 33902 ft | 429 kts | 291° |
| 2026-05-05 17:28 | 47.04236 | 20.22238 | 33903 ft | 430 kts | 291° |
| 2026-05-05 17:29 | 47.06499 | 20.14116 | 33902 ft | 430 kts | 291° |
| 2026-05-05 17:29 | 47.08737 | 20.06060 | 33918 ft | 429 kts | 291° |
| 2026-05-05 17:30 | 47.10983 | 19.97945 | 33918 ft | 428 kts | 291° |
| 2026-05-05 17:30 | 47.13223 | 19.89846 | 33922 ft | 428 kts | 291° |
| 2026-05-05 17:31 | 47.15452 | 19.81753 | 33923 ft | 427 kts | 291° |
| 2026-05-05 17:31 | 47.17674 | 19.73648 | 33925 ft | 427 kts | 291° |
| 2026-05-05 17:32 | 47.19888 | 19.65556 | 33931 ft | 426 kts | 291° |
| 2026-05-05 17:32 | 47.22093 | 19.57465 | 33925 ft | 426 kts | 291° |
| 2026-05-05 17:33 | 47.24288 | 19.49386 | 33930 ft | 425 kts | 291° |
| 2026-05-05 17:33 | 47.26474 | 19.41303 | 33931 ft | 425 kts | 291° |
| 2026-05-05 17:34 | 47.28658 | 19.33219 | 33930 ft | 425 kts | 291° |
| 2026-05-05 17:34 | 47.30835 | 19.25126 | 33922 ft | 425 kts | 291° |
| 2026-05-05 17:35 | 47.33006 | 19.17013 | 33919 ft | 425 kts | 291° |
| 2026-05-05 17:35 | 47.34807 | 19.08721 | 33917 ft | 425 kts | 283° |
| 2026-05-05 17:36 | 47.36230 | 19.00268 | 33920 ft | 425 kts | 283° |
| 2026-05-05 17:36 | 47.37666 | 18.91807 | 33915 ft | 425 kts | 283° |
| 2026-05-05 17:37 | 47.39090 | 18.83345 | 33909 ft | 425 kts | 283° |
| 2026-05-05 17:37 | 47.40493 | 18.74935 | 33903 ft | 425 kts | 283° |
| 2026-05-05 17:38 | 47.41896 | 18.66461 | 33902 ft | 425 kts | 283° |
| 2026-05-05 17:38 | 47.43292 | 18.57992 | 33909 ft | 424 kts | 283° |
| 2026-05-05 17:39 | 47.44693 | 18.49518 | 33905 ft | 424 kts | 283° |
| 2026-05-05 17:39 | 47.46082 | 18.41058 | 33895 ft | 424 kts | 283° |
| 2026-05-05 17:40 | 47.47465 | 18.32581 | 33894 ft | 424 kts | 283° |
| 2026-05-05 17:40 | 47.48835 | 18.24107 | 33884 ft | 424 kts | 283° |
| 2026-05-05 17:41 | 47.50199 | 18.15625 | 33891 ft | 424 kts | 282° |
| 2026-05-05 17:41 | 47.51556 | 18.07143 | 33885 ft | 424 kts | 282° |
| 2026-05-05 17:42 | 47.52906 | 17.98660 | 33890 ft | 424 kts | 282° |
| 2026-05-05 17:42 | 47.54244 | 17.90211 | 33874 ft | 424 kts | 282° |
| 2026-05-05 17:43 | 47.55587 | 17.81705 | 33881 ft | 424 kts | 282° |
| 2026-05-05 17:43 | 47.56973 | 17.73228 | 33895 ft | 424 kts | 283° |
| 2026-05-05 17:44 | 47.58417 | 17.64762 | 33892 ft | 424 kts | 283° |
| 2026-05-05 17:44 | 47.59847 | 17.56288 | 33887 ft | 424 kts | 282° |
| 2026-05-05 17:45 | 47.61245 | 17.47809 | 33881 ft | 423 kts | 282° |
| 2026-05-05 17:45 | 47.62632 | 17.39323 | 33868 ft | 424 kts | 281° |
| 2026-05-05 17:46 | 47.63857 | 17.30778 | 33854 ft | 424 kts | 279° |
| 2026-05-05 17:46 | 47.64970 | 17.22197 | 33854 ft | 423 kts | 279° |
| 2026-05-05 17:47 | 47.66103 | 17.13620 | 33834 ft | 424 kts | 279° |
| 2026-05-05 17:47 | 47.67260 | 17.05042 | 33835 ft | 424 kts | 279° |
| 2026-05-05 17:48 | 47.68427 | 16.96459 | 33830 ft | 424 kts | 279° |
| 2026-05-05 17:48 | 47.69426 | 16.89308 | 33817 ft | 425 kts | 280° |
| 2026-05-05 17:49 | 47.70828 | 16.79310 | 33813 ft | 426 kts | 280° |
| 2026-05-05 17:49 | 47.71827 | 16.72096 | 33824 ft | 425 kts | 279° |
| 2026-05-05 17:50 | 47.72996 | 16.63535 | 33808 ft | 425 kts | 280° |
| 2026-05-05 17:50 | 47.74167 | 16.54909 | 33798 ft | 426 kts | 278° |
| 2026-05-05 17:51 | 47.75337 | 16.46271 | 33791 ft | 426 kts | 279° |
| 2026-05-05 17:51 | 47.76500 | 16.37641 | 33782 ft | 426 kts | 278° |
| 2026-05-05 17:52 | 47.77655 | 16.28993 | 33776 ft | 426 kts | 279° |
| 2026-05-05 17:52 | 47.78805 | 16.20346 | 33785 ft | 425 kts | 279° |
| 2026-05-05 17:53 | 47.79940 | 16.11737 | 33788 ft | 424 kts | 280° |
| 2026-05-05 17:53 | 47.81073 | 16.03108 | 33772 ft | 424 kts | 279° |
| 2026-05-05 17:54 | 47.82195 | 15.94510 | 33777 ft | 422 kts | 279° |
| 2026-05-05 17:54 | 47.83305 | 15.85938 | 33768 ft | 422 kts | 279° |
| 2026-05-05 17:55 | 47.84408 | 15.77361 | 33765 ft | 422 kts | 278° |
| 2026-05-05 17:55 | 47.85497 | 15.68847 | 33774 ft | 420 kts | 278° |
| 2026-05-05 17:56 | 47.86579 | 15.60313 | 33770 ft | 419 kts | 279° |
| 2026-05-05 17:56 | 47.87657 | 15.51762 | 33744 ft | 420 kts | 279° |
| 2026-05-05 17:57 | 47.88729 | 15.43225 | 33763 ft | 418 kts | 278° |
| 2026-05-05 17:57 | 47.89788 | 15.34688 | 33752 ft | 419 kts | 277° |
| 2026-05-05 17:58 | 47.90688 | 15.26087 | 33724 ft | 421 kts | 275° |
| 2026-05-05 17:58 | 47.91471 | 15.17421 | 33721 ft | 422 kts | 275° |
| 2026-05-05 17:59 | 47.92255 | 15.08735 | 33730 ft | 423 kts | 276° |
| 2026-05-05 17:59 | 47.93072 | 15.00027 | 33722 ft | 424 kts | 276° |
| 2026-05-05 18:00 | 47.93908 | 14.91298 | 33737 ft | 425 kts | 276° |
| 2026-05-05 18:00 | 47.94727 | 14.82553 | 33734 ft | 426 kts | 276° |
| 2026-05-05 18:01 | 47.95536 | 14.73783 | 33743 ft | 426 kts | 276° |
| 2026-05-05 18:01 | 47.96337 | 14.65013 | 33730 ft | 427 kts | 276° |
| 2026-05-05 18:02 | 47.97128 | 14.56238 | 33702 ft | 426 kts | 276° |
| 2026-05-05 18:02 | 47.97522 | 14.51861 | 33075 ft | 424 kts | 275° |
| 2026-05-05 18:02 | 47.97914 | 14.47498 | 32223 ft | 426 kts | 275° |
| 2026-05-05 18:02 | 47.98308 | 14.43100 | 31859 ft | 428 kts | 275° |
| 2026-05-05 18:03 | 47.98695 | 14.38737 | 31707 ft | 431 kts | 275° |
| 2026-05-05 18:03 | 47.99474 | 14.29838 | 31751 ft | 433 kts | 275° |
| 2026-05-05 18:04 | 48.00251 | 14.20900 | 31754 ft | 433 kts | 275° |
| 2026-05-05 18:04 | 48.01025 | 14.11977 | 31761 ft | 433 kts | 274° |
| 2026-05-05 18:05 | 48.01795 | 14.03065 | 31755 ft | 433 kts | 274° |
| 2026-05-05 18:05 | 48.02823 | 13.94203 | 31751 ft | 436 kts | 283° |
| 2026-05-05 18:06 | 48.04482 | 13.85478 | 31765 ft | 436 kts | 283° |
| 2026-05-05 18:06 | 48.06136 | 13.76770 | 31756 ft | 436 kts | 283° |
| 2026-05-05 18:07 | 48.07779 | 13.68058 | 31768 ft | 434 kts | 282° |
| 2026-05-05 18:07 | 48.09406 | 13.59360 | 31770 ft | 434 kts | 282° |
| 2026-05-05 18:08 | 48.11024 | 13.50648 | 31774 ft | 434 kts | 282° |
| 2026-05-05 18:08 | 48.12640 | 13.41930 | 31765 ft | 435 kts | 282° |
| 2026-05-05 18:09 | 48.14251 | 13.33199 | 31797 ft | 434 kts | 281° |
| 2026-05-05 18:09 | 48.15851 | 13.24486 | 31785 ft | 434 kts | 281° |
| 2026-05-05 18:10 | 48.17441 | 13.15767 | 31788 ft | 434 kts | 281° |
| 2026-05-05 18:10 | 48.19023 | 13.07042 | 31794 ft | 434 kts | 281° |
| 2026-05-05 18:11 | 48.20601 | 12.98310 | 31795 ft | 434 kts | 281° |
| 2026-05-05 18:11 | 48.22175 | 12.89575 | 31811 ft | 434 kts | 280° |
| 2026-05-05 18:12 | 48.23745 | 12.80827 | 31807 ft | 435 kts | 281° |
| 2026-05-05 18:12 | 48.25316 | 12.72065 | 31803 ft | 435 kts | 280° |
| 2026-05-05 18:13 | 48.26860 | 12.63299 | 31800 ft | 435 kts | 280° |
| 2026-05-05 18:13 | 48.28402 | 12.54519 | 31816 ft | 435 kts | 280° |
| 2026-05-05 18:13 | 48.29173 | 12.50152 | 31565 ft | 432 kts | 280° |
| 2026-05-05 18:14 | 48.29942 | 12.45802 | 30943 ft | 428 kts | 280° |
| 2026-05-05 18:14 | 48.30701 | 12.41502 | 30329 ft | 425 kts | 280° |
| 2026-05-05 18:14 | 48.31455 | 12.37219 | 29710 ft | 422 kts | 280° |
| 2026-05-05 18:14 | 48.32198 | 12.32983 | 29051 ft | 419 kts | 280° |
| 2026-05-05 18:15 | 48.32936 | 12.28750 | 28417 ft | 416 kts | 280° |
| 2026-05-05 18:15 | 48.33662 | 12.24566 | 27817 ft | 412 kts | 280° |
| 2026-05-05 18:15 | 48.34378 | 12.20415 | 27234 ft | 409 kts | 280° |
| 2026-05-05 18:15 | 48.35084 | 12.16293 | 26656 ft | 405 kts | 280° |
| 2026-05-05 18:16 | 48.35786 | 12.12207 | 26102 ft | 402 kts | 280° |
| 2026-05-05 18:16 | 48.36487 | 12.08145 | 25575 ft | 400 kts | 280° |
| 2026-05-05 18:16 | 48.37179 | 12.04106 | 25031 ft | 397 kts | 280° |
| 2026-05-05 18:16 | 48.37852 | 12.00143 | 24523 ft | 394 kts | 280° |
| 2026-05-05 18:17 | 48.38530 | 11.96155 | 24018 ft | 392 kts | 280° |
| 2026-05-05 18:17 | 48.39203 | 11.92203 | 23541 ft | 389 kts | 281° |
| 2026-05-05 18:17 | 48.39874 | 11.88274 | 23009 ft | 386 kts | 281° |
| 2026-05-05 18:17 | 48.40536 | 11.84376 | 22483 ft | 383 kts | 281° |
| 2026-05-05 18:18 | 48.41192 | 11.80501 | 21980 ft | 380 kts | 281° |
| 2026-05-05 18:18 | 48.41842 | 11.76657 | 21485 ft | 377 kts | 281° |
| 2026-05-05 18:18 | 48.42487 | 11.72837 | 21001 ft | 375 kts | 281° |
| 2026-05-05 18:18 | 48.43122 | 11.69056 | 20545 ft | 372 kts | 281° |
| 2026-05-05 18:19 | 48.43752 | 11.65291 | 20085 ft | 369 kts | 281° |
| 2026-05-05 18:19 | 48.44375 | 11.61558 | 19829 ft | 368 kts | 281° |
| 2026-05-05 18:19 | 48.44997 | 11.57822 | 19808 ft | 368 kts | 281° |
| 2026-05-05 18:19 | 48.45618 | 11.54072 | 19816 ft | 368 kts | 281° |
| 2026-05-05 18:20 | 48.46238 | 11.50328 | 19817 ft | 368 kts | 281° |
| 2026-05-05 18:20 | 48.46858 | 11.46583 | 19819 ft | 369 kts | 281° |
| 2026-05-05 18:20 | 48.47478 | 11.42841 | 19820 ft | 369 kts | 281° |
| 2026-05-05 18:20 | 48.48099 | 11.39084 | 19822 ft | 369 kts | 281° |
| 2026-05-05 18:21 | 48.48719 | 11.35334 | 19826 ft | 369 kts | 281° |
| 2026-05-05 18:21 | 48.49336 | 11.31587 | 19825 ft | 369 kts | 281° |
| 2026-05-05 18:21 | 48.49952 | 11.27832 | 19836 ft | 369 kts | 281° |
| 2026-05-05 18:21 | 48.50566 | 11.24082 | 19834 ft | 368 kts | 281° |
| 2026-05-05 18:22 | 48.51177 | 11.20333 | 19835 ft | 368 kts | 281° |
| 2026-05-05 18:22 | 48.51786 | 11.16586 | 19817 ft | 368 kts | 281° |
| 2026-05-05 18:22 | 48.52395 | 11.12838 | 19819 ft | 368 kts | 281° |
| 2026-05-05 18:22 | 48.53003 | 11.09086 | 19819 ft | 368 kts | 281° |
| 2026-05-05 18:23 | 48.53608 | 11.05340 | 19820 ft | 368 kts | 281° |
| 2026-05-05 18:23 | 48.54214 | 11.01588 | 19820 ft | 368 kts | 281° |
| 2026-05-05 18:23 | 48.54819 | 10.97841 | 19821 ft | 368 kts | 281° |
| 2026-05-05 18:23 | 48.55425 | 10.94082 | 19832 ft | 368 kts | 281° |
| 2026-05-05 18:24 | 48.56027 | 10.90327 | 19836 ft | 368 kts | 281° |
| 2026-05-05 18:24 | 48.56627 | 10.86568 | 19847 ft | 369 kts | 281° |
| 2026-05-05 18:24 | 48.57227 | 10.82804 | 19839 ft | 370 kts | 281° |
| 2026-05-05 18:24 | 48.57826 | 10.79026 | 19797 ft | 371 kts | 281° |
| 2026-05-05 18:25 | 48.58428 | 10.75217 | 19216 ft | 373 kts | 281° |
| 2026-05-05 18:25 | 48.58630 | 10.73938 | 19055 ft | 372 kts | 281° |
| 2026-05-05 18:25 | 48.59596 | 10.67641 | 18271 ft | 368 kts | 280° |
| 2026-05-05 18:25 | 48.60141 | 10.63872 | 17750 ft | 366 kts | 279° |
| 2026-05-05 18:26 | 48.60671 | 10.60125 | 17217 ft | 364 kts | 279° |
| 2026-05-05 18:26 | 48.61196 | 10.56401 | 16692 ft | 362 kts | 280° |
| 2026-05-05 18:26 | 48.61719 | 10.52690 | 16179 ft | 360 kts | 280° |
| 2026-05-05 18:26 | 48.62239 | 10.49002 | 15673 ft | 358 kts | 280° |
| 2026-05-05 18:27 | 48.62757 | 10.45335 | 15183 ft | 356 kts | 280° |
| 2026-05-05 18:27 | 48.63272 | 10.41693 | 14696 ft | 353 kts | 280° |
| 2026-05-05 18:27 | 48.63781 | 10.38067 | 14211 ft | 351 kts | 280° |
| 2026-05-05 18:27 | 48.64285 | 10.34468 | 13737 ft | 348 kts | 280° |
| 2026-05-05 18:28 | 48.65279 | 10.27374 | 12791 ft | 339 kts | 280° |
| 2026-05-05 18:28 | 48.65759 | 10.24000 | 12595 ft | 315 kts | 280° |
| 2026-05-05 18:28 | 48.66060 | 10.21886 | 12254 ft | 307 kts | 279° |
| 2026-05-05 18:29 | 48.66499 | 10.18769 | 11585 ft | 300 kts | 279° |
| 2026-05-05 18:29 | 48.66926 | 10.15703 | 10884 ft | 296 kts | 279° |
| 2026-05-05 18:29 | 48.67343 | 10.12683 | 10176 ft | 292 kts | 279° |
| 2026-05-05 18:29 | 48.67757 | 10.09698 | 9439 ft | 288 kts | 278° |
| 2026-05-05 18:30 | 48.68165 | 10.06749 | 8862 ft | 286 kts | 279° |
| 2026-05-05 18:30 | 48.68566 | 10.03849 | 8333 ft | 275 kts | 278° |
| 2026-05-05 18:30 | 48.68949 | 10.01086 | 7921 ft | 262 kts | 278° |
| 2026-05-05 18:30 | 48.69316 | 9.98428 | 7542 ft | 249 kts | 278° |
| 2026-05-05 18:31 | 48.69661 | 9.95933 | 7188 ft | 237 kts | 278° |
| 2026-05-05 18:31 | 48.69992 | 9.93509 | 6666 ft | 233 kts | 278° |
| 2026-05-05 18:31 | 48.70318 | 9.91115 | 6151 ft | 231 kts | 278° |
| 2026-05-05 18:31 | 48.70641 | 9.88741 | 6005 ft | 232 kts | 278° |
| 2026-05-05 18:32 | 48.70965 | 9.86346 | 5996 ft | 233 kts | 278° |
| 2026-05-05 18:32 | 48.71290 | 9.83942 | 6017 ft | 234 kts | 278° |
| 2026-05-05 18:32 | 48.71616 | 9.81530 | 6005 ft | 233 kts | 278° |
| 2026-05-05 18:32 | 48.71941 | 9.79142 | 5887 ft | 230 kts | 278° |
| 2026-05-05 18:33 | 48.72263 | 9.76768 | 5494 ft | 231 kts | 278° |
| 2026-05-05 18:33 | 48.72586 | 9.74383 | 5131 ft | 231 kts | 278° |
| 2026-05-05 18:33 | 48.72908 | 9.72006 | 5006 ft | 231 kts | 278° |
| 2026-05-05 18:33 | 48.73232 | 9.69621 | 5012 ft | 232 kts | 279° |
| 2026-05-05 18:34 | 48.73555 | 9.67225 | 5013 ft | 232 kts | 278° |
| 2026-05-05 18:34 | 48.73876 | 9.64826 | 5011 ft | 232 kts | 278° |
| 2026-05-05 18:34 | 48.74194 | 9.62436 | 5021 ft | 232 kts | 278° |
| 2026-05-05 18:34 | 48.74512 | 9.60044 | 5014 ft | 231 kts | 278° |
| 2026-05-05 18:35 | 48.74822 | 9.57736 | 4994 ft | 213 kts | 278° |
| 2026-05-05 18:35 | 48.75070 | 9.55650 | 5003 ft | 188 kts | 269° |
| 2026-05-05 18:35 | 48.74916 | 9.53779 | 5022 ft | 176 kts | 253° |
| 2026-05-05 18:35 | 48.74584 | 9.52004 | 4870 ft | 174 kts | 253° |
| 2026-05-05 18:36 | 48.74254 | 9.50239 | 4665 ft | 174 kts | 253° |
| 2026-05-05 18:36 | 48.73925 | 9.48477 | 4446 ft | 173 kts | 253° |
| 2026-05-05 18:36 | 48.73600 | 9.46739 | 4221 ft | 174 kts | 253° |
| 2026-05-05 18:36 | 48.73272 | 9.44982 | 3986 ft | 171 kts | 253° |
| 2026-05-05 18:37 | 48.72954 | 9.43278 | 3764 ft | 166 kts | 253° |
| 2026-05-05 18:37 | 48.72637 | 9.41586 | 3541 ft | 165 kts | 253° |
| 2026-05-05 18:37 | 48.72324 | 9.39918 | 3316 ft | 165 kts | 253° |
| 2026-05-05 18:37 | 48.72014 | 9.38265 | 3096 ft | 165 kts | 253° |
| 2026-05-05 18:38 | 48.71699 | 9.36587 | 2879 ft | 166 kts | 253° |
| 2026-05-05 18:38 | 48.71384 | 9.34910 | 2656 ft | 166 kts | 253° |
| 2026-05-05 18:38 | 48.71071 | 9.33241 | 2431 ft | 158 kts | 253° |
| 2026-05-05 18:38 | 48.70785 | 9.31720 | 2223 ft | 144 kts | 253° |
| 2026-05-05 18:39 | 48.70513 | 9.30279 | 2021 ft | 141 kts | 253° |
| 2026-05-05 18:39 | 48.70244 | 9.28849 | 1834 ft | 142 kts | 253° |
| 2026-05-05 18:39 | 48.69973 | 9.27411 | 1646 ft | 142 kts | 253° |
| 2026-05-05 18:39 | 48.69703 | 9.25968 | 1447 ft | 142 kts | 252° |
| 2026-05-05 18:40 | 48.69419 | 9.24504 | 1289 ft | 143 kts | 252° |
| 2026-05-05 18:40 | 48.69167 | 9.23129 | 1216 ft | 124 kts | 253° |
| 2026-05-05 18:40 | 48.68966 | 9.22105 | 1246 ft | 77 kts | 253° |
| 2026-05-05 18:40 | 48.68863 | 9.21549 | 1252 ft | 42 kts | 257° |
| 2026-05-05 18:41 | 48.68823 | 9.21111 | 1267 ft | 41 kts | 274° |
| 2026-05-05 18:41 | 48.68862 | 9.20826 | 1271 ft | 0 kts | 284° |
| 2026-05-05 18:42 | 48.68863 | 9.20822 | 1271 ft | 3 kts | 284° |
| 2026-05-05 18:42 | 48.68870 | 9.20774 | 1273 ft | 3 kts | 284° |
| 2026-05-05 18:42 | 48.68874 | 9.20708 | 1275 ft | 14 kts | 268° |
| 2026-05-05 18:42 | 48.68845 | 9.20522 | 1280 ft | 23 kts | 255° |
| 2026-05-05 18:43 | 48.68800 | 9.20281 | 1286 ft | 22 kts | 253° |
| 2026-05-05 18:43 | 48.68764 | 9.20091 | 1289 ft | 14 kts | 255° |
| 2026-05-05 18:43 | 48.68762 | 9.19962 | 1293 ft | 10 kts | 275° |
| 2026-05-05 18:43 | 48.68763 | 9.19891 | 1295 ft | 4 kts | 264° |
| 2026-05-05 18:44 | 48.68756 | 9.19845 | 1297 ft | 6 kts | 255° |
| 2026-05-05 18:44 | 48.68739 | 9.19750 | 1299 ft | 11 kts | 254° |
| 2026-05-05 18:44 | 48.68722 | 9.19663 | 1302 ft | 6 kts | 253° |
| 2026-05-05 18:44 | 48.68714 | 9.19620 | 1303 ft | 3 kts | 253° |
| 2026-05-05 18:45 | 48.68704 | 9.19566 | 1304 ft | 8 kts | 253° |
| 2026-05-05 18:45 | 48.68684 | 9.19464 | 1307 ft | 13 kts | 254° |
| 2026-05-05 18:45 | 48.68656 | 9.19316 | 1311 ft | 14 kts | 254° |
| 2026-05-05 18:45 | 48.68647 | 9.19194 | 1315 ft | 9 kts | 296° |
| 2026-05-05 18:46 | 48.68682 | 9.19162 | 1317 ft | 4 kts | 340° |
| 2026-05-05 18:46 | 48.68742 | 9.19152 | 1318 ft | 14 kts | 19° |
| 2026-05-05 18:46 | 48.68790 | 9.19295 | 1315 ft | 18 kts | 74° |
| 2026-05-05 18:46 | 48.68842 | 9.19378 | 1314 ft | 9 kts | 341° |
| 2026-05-05 18:47 | 48.68885 | 9.19359 | 1315 ft | 0 kts | 343° |